sensor_id;sensor_type;location;lat;lon;timestamp;pressure;altitude;pressure_sealevel;temperature;humidity
20622;BME280;10470;42.670;23.354;2022-12-24T00:01:17;94631.88;;;3.40;100.00
20622;BME280;10470;42.670;23.354;2022-12-24T00:04:02;94639.47;;;3.48;100.00
20622;BME280;10470;42.670;23.354;2022-12-24T00:06:48;94636.94;;;3.65;100.00
20622;BME280;10470;42.670;23.354;2022-12-24T00:09:33;94639.16;;;3.43;100.00
20622;BME280;10470;42.670;23.354;2022-12-24T00:12:19;94634.75;;;3.25;100.00
20622;BME280;10470;42.670;23.354;2022-12-24T00:15:05;94653.63;;;2.88;100.00
20622;BME280;10470;42.670;23.354;2022-12-24T00:17:50;94657.13;;;3.19;100.00
20622;BME280;10470;42.670;23.354;2022-12-24T00:20:36;94649.28;;;3.32;100.00
20622;BME280;10470;42.670;23.354;2022-12-24T00:23:21;94652.84;;;3.25;100.00
20622;BME280;10470;42.670;23.354;2022-12-24T00:26:07;94641.53;;;3.03;100.00
20622;BME280;10470;42.670;23.354;2022-12-24T00:28:53;94633.69;;;3.19;100.00
20622;BME280;10470;42.670;23.354;2022-12-24T00:31:38;94633.00;;;3.42;100.00
20622;BME280;10470;42.670;23.354;2022-12-24T00:34:24;94628.63;;;3.25;100.00
20622;BME280;10470;42.670;23.354;2022-12-24T00:37:09;94634.00;;;3.25;100.00
20622;BME280;10470;42.670;23.354;2022-12-24T00:39:55;94637.31;;;3.36;100.00
20622;BME280;10470;42.670;23.354;2022-12-24T00:42:40;94640.38;;;3.38;100.00
20622;BME280;10470;42.670;23.354;2022-12-24T00:45:26;94638.56;;;3.28;100.00
20622;BME280;10470;42.670;23.354;2022-12-24T00:48:12;94639.88;;;3.47;100.00
20622;BME280;10470;42.670;23.354;2022-12-24T00:50:57;94615.78;;;3.36;100.00
20622;BME280;10470;42.670;23.354;2022-12-24T00:53:43;94637.25;;;3.40;100.00
20622;BME280;10470;42.670;23.354;2022-12-24T00:56:29;94647.03;;;3.26;100.00
20622;BME280;10470;42.670;23.354;2022-12-24T00:59:14;94654.06;;;2.82;100.00
20622;BME280;10470;42.670;23.354;2022-12-24T01:02:00;94651.22;;;2.59;100.00
20622;BME280;10470;42.670;23.354;2022-12-24T01:04:45;94656.22;;;2.60;100.00
20622;BME280;10470;42.670;23.354;2022-12-24T01:07:49;94652.13;;;2.87;100.00
20622;BME280;10470;42.670;23.354;2022-12-24T01:10:35;94651.28;;;2.93;100.00
20622;BME280;10470;42.670;23.354;2022-12-24T01:13:20;94652.91;;;2.83;100.00
20622;BME280;10470;42.670;23.354;2022-12-24T01:16:18;94648.56;;;2.55;100.00
20622;BME280;10470;42.670;23.354;2022-12-24T01:19:04;94661.38;;;2.82;100.00
20622;BME280;10470;42.670;23.354;2022-12-24T01:21:49;94651.03;;;2.77;100.00
20622;BME280;10470;42.670;23.354;2022-12-24T01:24:35;94642.28;;;2.69;100.00
20622;BME280;10470;42.670;23.354;2022-12-24T01:27:20;94630.81;;;2.65;100.00
20622;BME280;10470;42.670;23.354;2022-12-24T01:30:07;94636.03;;;2.83;100.00
20622;BME280;10470;42.670;23.354;2022-12-24T01:32:53;94634.53;;;2.78;100.00
20622;BME280;10470;42.670;23.354;2022-12-24T01:35:39;94640.50;;;2.55;100.00
20622;BME280;10470;42.670;23.354;2022-12-24T01:38:25;94641.16;;;2.67;100.00
20622;BME280;10470;42.670;23.354;2022-12-24T01:41:20;94647.91;;;2.44;100.00
20622;BME280;10470;42.670;23.354;2022-12-24T01:44:27;94651.22;;;2.59;100.00
20622;BME280;10470;42.670;23.354;2022-12-24T01:50:08;94656.94;;;2.65;100.00
20622;BME280;10470;42.670;23.354;2022-12-24T01:52:57;94653.91;;;2.62;100.00
20622;BME280;10470;42.670;23.354;2022-12-24T01:55:43;94634.03;;;2.49;100.00
20622;BME280;10470;42.670;23.354;2022-12-24T01:58:31;94652.88;;;2.49;100.00
20622;BME280;10470;42.670;23.354;2022-12-24T02:01:18;94646.38;;;2.43;100.00
20622;BME280;10470;42.670;23.354;2022-12-24T02:04:18;94651.69;;;2.50;100.00
20622;BME280;10470;42.670;23.354;2022-12-24T02:07:08;94631.47;;;2.35;100.00
20622;BME280;10470;42.670;23.354;2022-12-24T02:09:57;94623.88;;;2.23;100.00
20622;BME280;10470;42.670;23.354;2022-12-24T02:12:44;94636.81;;;2.38;100.00
20622;BME280;10470;42.670;23.354;2022-12-24T02:21:51;94635.66;;;2.39;100.00
20622;BME280;10470;42.670;23.354;2022-12-24T02:27:57;94635.72;;;2.32;100.00
20622;BME280;10470;42.670;23.354;2022-12-24T02:30:47;94643.34;;;2.37;100.00
20622;BME280;10470;42.670;23.354;2022-12-24T02:33:49;94638.38;;;2.36;100.00
20622;BME280;10470;42.670;23.354;2022-12-24T02:36:47;94637.31;;;2.23;100.00
20622;BME280;10470;42.670;23.354;2022-12-24T02:42:49;94632.88;;;2.02;100.00
20622;BME280;10470;42.670;23.354;2022-12-24T02:45:39;94641.47;;;2.31;100.00
20622;BME280;10470;42.670;23.354;2022-12-24T02:48:27;94634.59;;;2.30;100.00
20622;BME280;10470;42.670;23.354;2022-12-24T02:51:14;94613.94;;;2.19;100.00
20622;BME280;10470;42.670;23.354;2022-12-24T02:54:00;94629.34;;;2.15;100.00
20622;BME280;10470;42.670;23.354;2022-12-24T03:00:05;94613.97;;;2.16;100.00
20622;BME280;10470;42.670;23.354;2022-12-24T03:05:59;94623.56;;;2.17;100.00
20622;BME280;10470;42.670;23.354;2022-12-24T03:08:49;94621.72;;;2.10;100.00
20622;BME280;10470;42.670;23.354;2022-12-24T03:11:43;94621.47;;;1.90;100.00
20622;BME280;10470;42.670;23.354;2022-12-24T03:14:31;94624.88;;;1.98;100.00
20622;BME280;10470;42.670;23.354;2022-12-24T03:17:19;94611.06;;;1.96;100.00
20622;BME280;10470;42.670;23.354;2022-12-24T03:20:07;94623.16;;;2.18;100.00
20622;BME280;10470;42.670;23.354;2022-12-24T03:22:52;94622.56;;;2.00;100.00
20622;BME280;10470;42.670;23.354;2022-12-24T03:25:40;94620.97;;;2.06;100.00
20622;BME280;10470;42.670;23.354;2022-12-24T03:28:27;94627.09;;;2.10;100.00
20622;BME280;10470;42.670;23.354;2022-12-24T03:31:13;94605.63;;;2.03;100.00
20622;BME280;10470;42.670;23.354;2022-12-24T03:33:59;94627.94;;;2.00;100.00
20622;BME280;10470;42.670;23.354;2022-12-24T03:36:46;94634.13;;;1.90;100.00
20622;BME280;10470;42.670;23.354;2022-12-24T03:39:32;94628.81;;;1.83;100.00
20622;BME280;10470;42.670;23.354;2022-12-24T03:42:18;94631.88;;;1.85;100.00
20622;BME280;10470;42.670;23.354;2022-12-24T03:45:03;94623.75;;;1.92;100.00
20622;BME280;10470;42.670;23.354;2022-12-24T03:47:49;94624.94;;;1.87;100.00
20622;BME280;10470;42.670;23.354;2022-12-24T03:50:35;94622.13;;;2.02;100.00
20622;BME280;10470;42.670;23.354;2022-12-24T03:53:20;94630.66;;;1.93;100.00
20622;BME280;10470;42.670;23.354;2022-12-24T03:56:06;94638.00;;;1.85;100.00
20622;BME280;10470;42.670;23.354;2022-12-24T03:58:51;94632.19;;;1.94;100.00
20622;BME280;10470;42.670;23.354;2022-12-24T04:01:37;94633.66;;;2.02;100.00
20622;BME280;10470;42.670;23.354;2022-12-24T04:04:23;94636.44;;;1.88;100.00
20622;BME280;10470;42.670;23.354;2022-12-24T04:07:07;94639.94;;;1.81;100.00
20622;BME280;10470;42.670;23.354;2022-12-24T04:09:52;94636.16;;;1.75;100.00
20622;BME280;10470;42.670;23.354;2022-12-24T04:12:38;94641.94;;;1.70;100.00
20622;BME280;10470;42.670;23.354;2022-12-24T04:15:23;94649.22;;;1.69;100.00
20622;BME280;10470;42.670;23.354;2022-12-24T04:18:09;94651.47;;;1.82;100.00
20622;BME280;10470;42.670;23.354;2022-12-24T04:20:55;94662.25;;;1.71;100.00
20622;BME280;10470;42.670;23.354;2022-12-24T04:23:41;94654.97;;;1.68;100.00
20622;BME280;10470;42.670;23.354;2022-12-24T04:26:26;94656.16;;;1.63;100.00
20622;BME280;10470;42.670;23.354;2022-12-24T04:29:12;94650.19;;;1.34;100.00
20622;BME280;10470;42.670;23.354;2022-12-24T04:31:57;94658.06;;;1.66;100.00
20622;BME280;10470;42.670;23.354;2022-12-24T04:34:43;94657.78;;;1.46;100.00
20622;BME280;10470;42.670;23.354;2022-12-24T04:37:28;94666.75;;;1.11;100.00
20622;BME280;10470;42.670;23.354;2022-12-24T04:40:14;94666.22;;;1.45;100.00
20622;BME280;10470;42.670;23.354;2022-12-24T04:42:59;94662.00;;;1.51;100.00
20622;BME280;10470;42.670;23.354;2022-12-24T04:45:45;94665.25;;;1.84;100.00
20622;BME280;10470;42.670;23.354;2022-12-24T04:48:30;94666.41;;;1.83;100.00
20622;BME280;10470;42.670;23.354;2022-12-24T04:51:16;94657.53;;;1.89;100.00
20622;BME280;10470;42.670;23.354;2022-12-24T04:54:02;94657.53;;;1.93;100.00
20622;BME280;10470;42.670;23.354;2022-12-24T04:56:48;94658.81;;;1.74;100.00
20622;BME280;10470;42.670;23.354;2022-12-24T04:59:33;94649.28;;;1.62;100.00
20622;BME280;10470;42.670;23.354;2022-12-24T05:02:18;94654.53;;;1.80;100.00
20622;BME280;10470;42.670;23.354;2022-12-24T05:05:04;94659.09;;;1.87;100.00
20622;BME280;10470;42.670;23.354;2022-12-24T05:07:50;94647.72;;;1.65;100.00
20622;BME280;10470;42.670;23.354;2022-12-24T05:10:36;94661.44;;;1.78;100.00
20622;BME280;10470;42.670;23.354;2022-12-24T05:13:21;94641.53;;;1.75;100.00
20622;BME280;10470;42.670;23.354;2022-12-24T05:16:07;94655.69;;;1.79;100.00
20622;BME280;10470;42.670;23.354;2022-12-24T05:18:53;94644.59;;;1.77;100.00
20622;BME280;10470;42.670;23.354;2022-12-24T05:21:39;94636.06;;;1.86;100.00
20622;BME280;10470;42.670;23.354;2022-12-24T05:24:17;94634.75;;;1.56;100.00
20622;BME280;10470;42.670;23.354;2022-12-24T05:27:21;94638.78;;;1.82;100.00
20622;BME280;10470;42.670;23.354;2022-12-24T05:30:07;94643.28;;;1.96;100.00
20622;BME280;10470;42.670;23.354;2022-12-24T05:32:53;94653.53;;;1.56;100.00
20622;BME280;10470;42.670;23.354;2022-12-24T05:35:38;94645.38;;;1.70;100.00
20622;BME280;10470;42.670;23.354;2022-12-24T05:38:23;94648.06;;;1.74;100.00
20622;BME280;10470;42.670;23.354;2022-12-24T05:41:09;94644.94;;;1.83;100.00
20622;BME280;10470;42.670;23.354;2022-12-24T05:43:55;94641.47;;;1.82;100.00
20622;BME280;10470;42.670;23.354;2022-12-24T05:46:41;94641.91;;;1.73;100.00
20622;BME280;10470;42.670;23.354;2022-12-24T05:49:27;94646.84;;;1.79;100.00
20622;BME280;10470;42.670;23.354;2022-12-24T05:52:13;94640.31;;;1.83;100.00
20622;BME280;10470;42.670;23.354;2022-12-24T05:54:58;94630.31;;;1.84;100.00
20622;BME280;10470;42.670;23.354;2022-12-24T05:57:43;94620.88;;;1.65;100.00
20622;BME280;10470;42.670;23.354;2022-12-24T06:00:29;94622.75;;;1.68;100.00
20622;BME280;10470;42.670;23.354;2022-12-24T06:03:14;94635.09;;;1.62;100.00
20622;BME280;10470;42.670;23.354;2022-12-24T06:06:02;94628.44;;;1.81;100.00
20622;BME280;10470;42.670;23.354;2022-12-24T06:08:50;94657.19;;;1.84;100.00
20622;BME280;10470;42.670;23.354;2022-12-24T06:11:36;94638.69;;;1.96;100.00
20622;BME280;10470;42.670;23.354;2022-12-24T06:14:21;94645.69;;;1.87;100.00
20622;BME280;10470;42.670;23.354;2022-12-24T06:17:07;94657.97;;;1.84;100.00
20622;BME280;10470;42.670;23.354;2022-12-24T06:19:52;94657.56;;;1.86;100.00
20622;BME280;10470;42.670;23.354;2022-12-24T06:22:38;94648.25;;;2.01;100.00
20622;BME280;10470;42.670;23.354;2022-12-24T06:25:23;94663.72;;;1.83;100.00
20622;BME280;10470;42.670;23.354;2022-12-24T06:28:09;94649.25;;;1.66;100.00
20622;BME280;10470;42.670;23.354;2022-12-24T06:30:48;94652.97;;;1.83;100.00
20622;BME280;10470;42.670;23.354;2022-12-24T06:33:34;94659.41;;;1.96;100.00
20622;BME280;10470;42.670;23.354;2022-12-24T06:36:22;94678.97;;;2.00;100.00
20622;BME280;10470;42.670;23.354;2022-12-24T06:39:07;94687.78;;;2.01;100.00
20622;BME280;10470;42.670;23.354;2022-12-24T06:41:53;94686.53;;;2.16;100.00
20622;BME280;10470;42.670;23.354;2022-12-24T06:44:39;94689.34;;;1.94;100.00
20622;BME280;10470;42.670;23.354;2022-12-24T06:47:24;94676.44;;;1.75;100.00
20622;BME280;10470;42.670;23.354;2022-12-24T06:50:10;94690.44;;;2.04;100.00
20622;BME280;10470;42.670;23.354;2022-12-24T06:52:51;94691.66;;;1.96;100.00
20622;BME280;10470;42.670;23.354;2022-12-24T06:55:36;94702.66;;;2.16;100.00
20622;BME280;10470;42.670;23.354;2022-12-24T06:58:22;94704.59;;;2.12;100.00
20622;BME280;10470;42.670;23.354;2022-12-24T07:01:09;94688.13;;;2.06;100.00
20622;BME280;10470;42.670;23.354;2022-12-24T07:03:55;94703.38;;;2.24;100.00
20622;BME280;10470;42.670;23.354;2022-12-24T07:06:41;94699.34;;;2.50;100.00
20622;BME280;10470;42.670;23.354;2022-12-24T07:09:26;94703.22;;;2.45;100.00
20622;BME280;10470;42.670;23.354;2022-12-24T07:12:12;94704.94;;;2.66;100.00
20622;BME280;10470;42.670;23.354;2022-12-24T07:14:57;94711.63;;;2.92;100.00
20622;BME280;10470;42.670;23.354;2022-12-24T07:17:43;94707.75;;;2.97;100.00
20622;BME280;10470;42.670;23.354;2022-12-24T07:20:28;94704.34;;;2.89;100.00
20622;BME280;10470;42.670;23.354;2022-12-24T07:23:14;94716.50;;;3.04;100.00
20622;BME280;10470;42.670;23.354;2022-12-24T07:26:00;94712.91;;;2.77;100.00
20622;BME280;10470;42.670;23.354;2022-12-24T07:28:46;94711.84;;;3.09;100.00
20622;BME280;10470;42.670;23.354;2022-12-24T07:31:32;94717.69;;;3.00;100.00
20622;BME280;10470;42.670;23.354;2022-12-24T07:34:17;94703.75;;;3.12;100.00
20622;BME280;10470;42.670;23.354;2022-12-24T07:37:03;94718.59;;;3.24;100.00
20622;BME280;10470;42.670;23.354;2022-12-24T07:39:48;94714.22;;;3.37;100.00
20622;BME280;10470;42.670;23.354;2022-12-24T07:42:34;94724.91;;;3.48;100.00
20622;BME280;10470;42.670;23.354;2022-12-24T07:45:19;94711.53;;;3.71;100.00
20622;BME280;10470;42.670;23.354;2022-12-24T07:48:05;94704.66;;;3.67;100.00
20622;BME280;10470;42.670;23.354;2022-12-24T07:50:51;94716.41;;;3.80;100.00
20622;BME280;10470;42.670;23.354;2022-12-24T07:53:36;94732.25;;;4.05;100.00
20622;BME280;10470;42.670;23.354;2022-12-24T07:56:22;94723.56;;;4.21;100.00
20622;BME280;10470;42.670;23.354;2022-12-24T07:59:10;94734.84;;;4.40;100.00
20622;BME280;10470;42.670;23.354;2022-12-24T08:01:56;94737.94;;;4.38;100.00
20622;BME280;10470;42.670;23.354;2022-12-24T08:04:42;94747.69;;;4.32;100.00
20622;BME280;10470;42.670;23.354;2022-12-24T08:07:28;94750.66;;;4.65;100.00
20622;BME280;10470;42.670;23.354;2022-12-24T08:10:13;94764.75;;;4.76;100.00
20622;BME280;10470;42.670;23.354;2022-12-24T08:12:59;94764.84;;;4.92;100.00
20622;BME280;10470;42.670;23.354;2022-12-24T08:15:44;94758.53;;;5.02;100.00
20622;BME280;10470;42.670;23.354;2022-12-24T08:18:30;94771.03;;;5.16;100.00
20622;BME280;10470;42.670;23.354;2022-12-24T08:21:15;94770.78;;;5.31;100.00
20622;BME280;10470;42.670;23.354;2022-12-24T08:24:01;94772.75;;;5.26;100.00
20622;BME280;10470;42.670;23.354;2022-12-24T08:26:46;94763.81;;;5.10;100.00
20622;BME280;10470;42.670;23.354;2022-12-24T08:29:32;94768.16;;;5.27;100.00
20622;BME280;10470;42.670;23.354;2022-12-24T08:32:17;94759.63;;;5.29;100.00
20622;BME280;10470;42.670;23.354;2022-12-24T08:35:03;94753.34;;;5.35;100.00
20622;BME280;10470;42.670;23.354;2022-12-24T08:37:49;94754.78;;;5.40;100.00
20622;BME280;10470;42.670;23.354;2022-12-24T08:40:34;94749.47;;;5.56;100.00
20622;BME280;10470;42.670;23.354;2022-12-24T08:43:20;94725.97;;;5.53;100.00
20622;BME280;10470;42.670;23.354;2022-12-24T08:46:06;94729.53;;;5.50;100.00
20622;BME280;10470;42.670;23.354;2022-12-24T08:48:51;94720.00;;;5.42;100.00
20622;BME280;10470;42.670;23.354;2022-12-24T08:51:31;94752.59;;;5.75;100.00
20622;BME280;10470;42.670;23.354;2022-12-24T08:54:17;94730.91;;;5.58;100.00
20622;BME280;10470;42.670;23.354;2022-12-24T08:57:02;94750.28;;;5.73;100.00
20622;BME280;10470;42.670;23.354;2022-12-24T08:59:48;94769.28;;;5.89;100.00
20622;BME280;10470;42.670;23.354;2022-12-24T09:02:34;94777.41;;;5.89;100.00
20622;BME280;10470;42.670;23.354;2022-12-24T09:05:19;94720.34;;;5.24;100.00
20622;BME280;10470;42.670;23.354;2022-12-24T09:08:05;94756.81;;;5.56;100.00
20622;BME280;10470;42.670;23.354;2022-12-24T09:10:50;94756.41;;;5.77;100.00
20622;BME280;10470;42.670;23.354;2022-12-24T09:13:36;94754.19;;;5.72;100.00
20622;BME280;10470;42.670;23.354;2022-12-24T09:16:22;94751.88;;;5.90;100.00
20622;BME280;10470;42.670;23.354;2022-12-24T09:19:08;94729.13;;;5.88;100.00
20622;BME280;10470;42.670;23.354;2022-12-24T09:21:53;94729.50;;;5.90;100.00
20622;BME280;10470;42.670;23.354;2022-12-24T09:24:39;94744.16;;;6.29;100.00
20622;BME280;10470;42.670;23.354;2022-12-24T09:27:24;94744.09;;;6.49;100.00
20622;BME280;10470;42.670;23.354;2022-12-24T09:30:10;94737.50;;;6.50;100.00
20622;BME280;10470;42.670;23.354;2022-12-24T09:32:56;94758.47;;;6.09;100.00
20622;BME280;10470;42.670;23.354;2022-12-24T09:35:42;94756.03;;;6.15;100.00
20622;BME280;10470;42.670;23.354;2022-12-24T09:38:27;94751.31;;;6.19;100.00
20622;BME280;10470;42.670;23.354;2022-12-24T09:44:43;94723.50;;;6.35;100.00
20622;BME280;10470;42.670;23.354;2022-12-24T09:50:38;94750.94;;;6.53;100.00
20622;BME280;10470;42.670;23.354;2022-12-24T09:53:46;94746.25;;;6.38;100.00
20622;BME280;10470;42.670;23.354;2022-12-24T09:56:40;94737.47;;;6.33;100.00
20622;BME280;10470;42.670;23.354;2022-12-24T09:59:38;94748.72;;;6.32;100.00
20622;BME280;10470;42.670;23.354;2022-12-24T10:02:25;94748.47;;;6.43;100.00
20622;BME280;10470;42.670;23.354;2022-12-24T10:05:14;94757.69;;;6.45;100.00
20622;BME280;10470;42.670;23.354;2022-12-24T10:20:38;94738.25;;;6.34;100.00
20622;BME280;10470;42.670;23.354;2022-12-24T10:23:38;94732.97;;;6.27;100.00
20622;BME280;10470;42.670;23.354;2022-12-24T10:26:34;94750.13;;;6.56;100.00
20622;BME280;10470;42.670;23.354;2022-12-24T10:29:27;94741.34;;;6.32;100.00
20622;BME280;10470;42.670;23.354;2022-12-24T10:32:20;94741.19;;;6.40;100.00
20622;BME280;10470;42.670;23.354;2022-12-24T10:34:58;94743.91;;;6.40;100.00
20622;BME280;10470;42.670;23.354;2022-12-24T10:37:47;94742.81;;;6.37;100.00
20622;BME280;10470;42.670;23.354;2022-12-24T10:40:34;94750.88;;;6.57;100.00
20622;BME280;10470;42.670;23.354;2022-12-24T10:43:23;94737.09;;;6.68;100.00
20622;BME280;10470;42.670;23.354;2022-12-24T10:46:22;94736.59;;;7.18;100.00
20622;BME280;10470;42.670;23.354;2022-12-24T10:49:29;94717.13;;;6.78;100.00
20622;BME280;10470;42.670;23.354;2022-12-24T10:52:16;94727.16;;;6.94;100.00
20622;BME280;10470;42.670;23.354;2022-12-24T10:55:20;94729.97;;;6.74;100.00
20622;BME280;10470;42.670;23.354;2022-12-24T10:58:15;94732.84;;;6.83;100.00
20622;BME280;10470;42.670;23.354;2022-12-24T11:01:02;94734.38;;;7.00;100.00
20622;BME280;10470;42.670;23.354;2022-12-24T11:03:59;94734.28;;;7.04;100.00
20622;BME280;10470;42.670;23.354;2022-12-24T11:06:53;94742.28;;;7.24;100.00
20622;BME280;10470;42.670;23.354;2022-12-24T11:09:39;94751.59;;;7.23;100.00
20622;BME280;10470;42.670;23.354;2022-12-24T11:12:28;94749.41;;;7.18;100.00
20622;BME280;10470;42.670;23.354;2022-12-24T11:15:25;94744.44;;;7.46;100.00
20622;BME280;10470;42.670;23.354;2022-12-24T11:18:13;94740.50;;;7.17;100.00
20622;BME280;10470;42.670;23.354;2022-12-24T11:20:59;94721.41;;;7.08;100.00
20622;BME280;10470;42.670;23.354;2022-12-24T11:23:50;94679.63;;;6.76;100.00
20622;BME280;10470;42.670;23.354;2022-12-24T11:26:38;94723.94;;;7.44;100.00
20622;BME280;10470;42.670;23.354;2022-12-24T11:29:26;94727.53;;;7.54;100.00
20622;BME280;10470;42.670;23.354;2022-12-24T11:32:19;94739.66;;;7.79;100.00
20622;BME280;10470;42.670;23.354;2022-12-24T11:35:06;94736.94;;;7.50;100.00
20622;BME280;10470;42.670;23.354;2022-12-24T11:40:49;94748.66;;;8.82;100.00
20622;BME280;10470;42.670;23.354;2022-12-24T11:43:43;94736.41;;;9.25;100.00
20622;BME280;10470;42.670;23.354;2022-12-24T11:46:41;94746.13;;;10.14;100.00
20622;BME280;10470;42.670;23.354;2022-12-24T11:49:31;94749.63;;;10.77;100.00
20622;BME280;10470;42.670;23.354;2022-12-24T11:52:21;94729.31;;;9.84;100.00
20622;BME280;10470;42.670;23.354;2022-12-24T11:55:21;94741.03;;;9.72;100.00
20622;BME280;10470;42.670;23.354;2022-12-24T12:04:18;94731.72;;;8.78;100.00
20622;BME280;10470;42.670;23.354;2022-12-24T12:07:12;94730.16;;;9.02;100.00
20622;BME280;10470;42.670;23.354;2022-12-24T12:10:06;94731.41;;;9.58;100.00
20622;BME280;10470;42.670;23.354;2022-12-24T12:13:02;94733.22;;;9.83;100.00
20622;BME280;10470;42.670;23.354;2022-12-24T12:18:38;94722.50;;;10.11;100.00
20622;BME280;10470;42.670;23.354;2022-12-24T12:21:28;94735.66;;;10.34;100.00
20622;BME280;10470;42.670;23.354;2022-12-24T12:24:25;94744.28;;;10.11;100.00
20622;BME280;10470;42.670;23.354;2022-12-24T12:27:23;94729.69;;;9.95;100.00
20622;BME280;10470;42.670;23.354;2022-12-24T12:30:15;94739.97;;;10.22;100.00
20622;BME280;10470;42.670;23.354;2022-12-24T12:33:12;94743.00;;;10.24;100.00
20622;BME280;10470;42.670;23.354;2022-12-24T12:36:00;94735.50;;;10.28;100.00
20622;BME280;10470;42.670;23.354;2022-12-24T12:38:50;94727.13;;;10.54;100.00
20622;BME280;10470;42.670;23.354;2022-12-24T12:51:27;94743.22;;;10.70;100.00
20622;BME280;10470;42.670;23.354;2022-12-24T12:54:20;94745.88;;;10.52;100.00
20622;BME280;10470;42.670;23.354;2022-12-24T12:57:13;94756.94;;;10.26;100.00
20622;BME280;10470;42.670;23.354;2022-12-24T13:00:06;94755.25;;;9.98;100.00
20622;BME280;10470;42.670;23.354;2022-12-24T13:06:19;94761.22;;;9.83;100.00
20622;BME280;10470;42.670;23.354;2022-12-24T13:12:18;94769.44;;;9.71;100.00
20622;BME280;10470;42.670;23.354;2022-12-24T13:18:15;94759.50;;;9.77;100.00
20622;BME280;10470;42.670;23.354;2022-12-24T13:21:03;94775.13;;;9.63;100.00
20622;BME280;10470;42.670;23.354;2022-12-24T13:23:49;94771.72;;;9.37;100.00
20622;BME280;10470;42.670;23.354;2022-12-24T13:26:34;94784.84;;;9.04;100.00
20622;BME280;10470;42.670;23.354;2022-12-24T13:29:41;94781.47;;;9.00;100.00
20622;BME280;10470;42.670;23.354;2022-12-24T13:32:39;94799.38;;;9.10;100.00
20622;BME280;10470;42.670;23.354;2022-12-24T13:35:27;94792.38;;;8.87;100.00
20622;BME280;10470;42.670;23.354;2022-12-24T13:49:51;94790.41;;;8.49;100.00
20622;BME280;10470;42.670;23.354;2022-12-24T13:52:37;94796.25;;;8.48;100.00
20622;BME280;10470;42.670;23.354;2022-12-24T13:55:23;94798.53;;;8.49;100.00
20622;BME280;10470;42.670;23.354;2022-12-24T13:58:15;94796.19;;;8.64;100.00
20622;BME280;10470;42.670;23.354;2022-12-24T14:01:10;94786.81;;;8.65;100.00
20622;BME280;10470;42.670;23.354;2022-12-24T14:03:50;94803.31;;;8.45;100.00
20622;BME280;10470;42.670;23.354;2022-12-24T14:06:40;94780.50;;;8.43;100.00
20622;BME280;10470;42.670;23.354;2022-12-24T14:09:27;94784.84;;;8.53;100.00
20622;BME280;10470;42.670;23.354;2022-12-24T14:12:31;94791.47;;;8.39;100.00
20622;BME280;10470;42.670;23.354;2022-12-24T14:18:43;94798.81;;;8.26;100.00
20622;BME280;10470;42.670;23.354;2022-12-24T14:21:33;94805.13;;;8.36;100.00
20622;BME280;10470;42.670;23.354;2022-12-24T14:24:23;94800.56;;;8.20;100.00
20622;BME280;10470;42.670;23.354;2022-12-24T14:27:17;94779.88;;;7.97;100.00
20622;BME280;10470;42.670;23.354;2022-12-24T14:30:06;94800.75;;;8.13;100.00
20622;BME280;10470;42.670;23.354;2022-12-24T14:32:53;94800.84;;;7.80;100.00
20622;BME280;10470;42.670;23.354;2022-12-24T14:35:39;94795.09;;;7.78;100.00
20622;BME280;10470;42.670;23.354;2022-12-24T14:38:25;94793.97;;;7.92;100.00
20622;BME280;10470;42.670;23.354;2022-12-24T14:50:15;94799.34;;;8.21;100.00
20622;BME280;10470;42.670;23.354;2022-12-24T14:56:22;94765.41;;;8.42;100.00
20622;BME280;10470;42.670;23.354;2022-12-24T14:59:16;94791.38;;;8.68;100.00
20622;BME280;10470;42.670;23.354;2022-12-24T15:03:06;94788.88;;;8.61;100.00
20622;BME280;10470;42.670;23.354;2022-12-24T15:05:31;94755.84;;;8.50;100.00
20622;BME280;10470;42.670;23.354;2022-12-24T15:08:17;94784.44;;;8.80;100.00
20622;BME280;10470;42.670;23.354;2022-12-24T15:11:08;94775.00;;;8.59;100.00
20622;BME280;10470;42.670;23.354;2022-12-24T15:13:57;94776.84;;;8.62;100.00
20622;BME280;10470;42.670;23.354;2022-12-24T15:16:51;94774.31;;;8.68;100.00
20622;BME280;10470;42.670;23.354;2022-12-24T15:19:41;94779.34;;;8.69;100.00
20622;BME280;10470;42.670;23.354;2022-12-24T15:22:30;94760.94;;;8.48;100.00
20622;BME280;10470;42.670;23.354;2022-12-24T15:25:19;94799.84;;;8.70;100.00
20622;BME280;10470;42.670;23.354;2022-12-24T15:28:16;94788.09;;;8.48;100.00
20622;BME280;10470;42.670;23.354;2022-12-24T15:31:14;94791.81;;;8.54;100.00
20622;BME280;10470;42.670;23.354;2022-12-24T15:34:00;94787.16;;;8.67;100.00
20622;BME280;10470;42.670;23.354;2022-12-24T15:36:45;94793.75;;;8.66;100.00
20622;BME280;10470;42.670;23.354;2022-12-24T15:39:31;94787.69;;;8.62;100.00
20622;BME280;10470;42.670;23.354;2022-12-24T15:42:18;94766.84;;;8.46;100.00
20622;BME280;10470;42.670;23.354;2022-12-24T15:47:59;94774.00;;;8.53;100.00
20622;BME280;10470;42.670;23.354;2022-12-24T15:50:47;94783.69;;;8.54;100.00
20622;BME280;10470;42.670;23.354;2022-12-24T15:53:40;94794.97;;;8.52;100.00
20622;BME280;10470;42.670;23.354;2022-12-24T15:56:43;94792.03;;;8.60;100.00
20622;BME280;10470;42.670;23.354;2022-12-24T15:59:31;94793.53;;;8.61;100.00
20622;BME280;10470;42.670;23.354;2022-12-24T16:02:40;94789.09;;;8.54;100.00
20622;BME280;10470;42.670;23.354;2022-12-24T16:05:29;94786.06;;;8.52;100.00
20622;BME280;10470;42.670;23.354;2022-12-24T16:11:19;94800.63;;;8.71;100.00
20622;BME280;10470;42.670;23.354;2022-12-24T16:14:11;94792.25;;;8.65;100.00
20622;BME280;10470;42.670;23.354;2022-12-24T16:16:58;94804.00;;;8.75;100.00
20622;BME280;10470;42.670;23.354;2022-12-24T16:19:46;94813.03;;;8.85;100.00
20622;BME280;10470;42.670;23.354;2022-12-24T16:22:33;94801.50;;;8.68;100.00
20622;BME280;10470;42.670;23.354;2022-12-24T16:25:27;94805.97;;;8.87;100.00